Flight Track Log - Related Links

Times and Time Zones

All times are in EDT time to prevent confusion due to time zone crossing. See the F-GSPR flight status page for this flight to view local times or setup timezone preferences in your user account.

Time Position Orientation Groundspeed Altitude Reporting Facility
EDT Latitude Longitude Course Direction KTS MPH feet Rate Location/Type
Thu 06:22:00 PM -22.9918 -46.1955 30° Northeast  Level Estimated
Thu 06:23:00 PM -22.8805 -46.1265 30° Northeast  Level Estimated
Thu 06:27:00 PM -23.2113 -46.3446 30° Northeast  Level Estimated
Thu 06:29:00 PM -23.2206 -46.3494 30° Northeast  Level Estimated
Thu 06:30:00 PM -23.1093 -46.2802 30° Northeast  Level Estimated
Thu 06:34:00 PM -23.2411 -46.3629 30° Northeast  Level Estimated
Thu 06:35:00 PM -23.1299 -46.2937 30° Northeast  Level Estimated
Thu 06:36:00 PM -23.0186 -46.2246 30° Northeast  Level Estimated
Thu 06:40:00 PM -23.1690 -46.3187 30° Northeast  Level Estimated
Thu 06:41:22 PM -23.4240 -46.4450 74° East 187 215 2,900  Level FlightAware ADS-B
Thu 06:41:52 PM -23.4160 -46.4190 71° East 185 213 4,200 2,400 Climbing FlightAware ADS-B
Thu 06:42:12 PM -23.4110 -46.4010 73° East 191 220 4,900 2,250 Climbing FlightAware ADS-B
Thu 06:42:32 PM -23.4060 -46.3830 73° East 188 216 5,700 1,440 Climbing FlightAware ADS-B
Thu 06:43:02 PM -23.3960 -46.3510 71° East 223 257 6,100 1,091 Climbing FlightAware ADS-B
Thu 06:43:27 PM -23.3880 -46.3220 73° East 256 295 6,700 1,800 Climbing FlightAware ADS-B
Thu 06:44:02 PM -23.3730 -46.2750 71° East 280 322 7,900 2,280 Climbing FlightAware ADS-B
Thu 06:44:17 PM -23.3640 -46.2570 61° Northeast 278 320 8,600 2,600 Climbing FlightAware ADS-B
Thu 06:44:32 PM -23.3510 -46.2440 43° Northeast 287 330 9,200 1,800 Climbing FlightAware ADS-B
Thu 06:44:47 PM -23.3340 -46.2370 21° North 292 336 9,500 1,964 Climbing FlightAware ADS-B
Thu 06:45:27 PM -23.2740 -46.2220 13° North 314 361 11,000 1,728 Climbing FlightAware ADS-B
Thu 06:46:52 PM -23.1510 -46.1880 14° North 348 400 13,100 1,163 Climbing FlightAware ADS-B
Thu 06:48:07 PM -23.0250 -46.1460 17° North 393 452 14,100 1,240 Climbing FlightAware ADS-B
Thu 06:49:22 PM -22.8920 -46.0940 20° North 407 468 16,200 1,697 Climbing FlightAware ADS-B
Thu 06:50:32 PM -22.7620 -46.0440 20° North 428 493 18,200 1,614 Climbing FlightAware ADS-B
Thu 06:51:47 PM -22.6190 -45.9900 19° North 442 509 20,100 1,480 Climbing FlightAware ADS-B
Thu 06:53:02 PM -22.4720 -45.9340 19° North 446 513 21,900 1,440 Climbing FlightAware ADS-B
Thu 06:54:17 PM -22.3220 -45.8770 19° North 460 529 23,700 1,920 Climbing FlightAware ADS-B
Thu 06:55:32 PM -22.1790 -45.8220 20° North 425 489 26,700 1,500 Climbing FlightAware ADS-B
Thu 06:56:37 PM -22.0510 -45.7740 19° North 463 533 27,200 545 Climbing FlightAware ADS-B
Thu 06:57:22 PM -21.9510 -45.7360 19° North 481 554 27,700 847 Climbing FlightAware ADS-B
Thu 06:58:02 PM -21.8670 -45.7040 19° North 487 560 28,400 1,059 Climbing FlightAware ADS-B
Thu 06:58:47 PM -21.7730 -45.6690 19° North 492 566 29,200 988 Climbing FlightAware ADS-B
Thu 06:59:27 PM -21.6820 -45.6340 20° North 497 572 29,800 1,125 Climbing FlightAware ADS-B
Thu 07:00:07 PM -21.5990 -45.6030 19° North 496 571 30,700 1,271 Climbing FlightAware ADS-B
Thu 07:00:52 PM -21.5000 -45.5620 21° North 496 571 31,600 1,129 Climbing FlightAware ADS-B
Thu 07:01:32 PM -21.4200 -45.5130 30° Northeast 498 573 32,300 900 Climbing FlightAware ADS-B
Thu 07:02:12 PM -21.3440 -45.4600 33° Northeast 502 578 32,800 918 Climbing FlightAware ADS-B
Thu 07:02:57 PM -21.2560 -45.3990 33° Northeast 502 578 33,600 1,059 Climbing FlightAware ADS-B
Thu 07:03:37 PM -21.1740 -45.3440 32° Northeast 502 578 34,300 988 Climbing FlightAware ADS-B
Thu 07:04:22 PM -21.0870 -45.2840 33° Northeast 500 575 35,000 494 Climbing FlightAware ADS-B
Thu 07:05:02 PM -21.0120 -45.2330 32° Northeast 496 571 35,000  Level FlightAware ADS-B
Thu 07:05:47 PM -20.9240 -45.1730 32° Northeast 500 575 35,000  Level FlightAware ADS-B
Thu 07:06:22 PM -20.8540 -45.1250 33° Northeast 504 580 35,000  Level FlightAware ADS-B
Thu 07:07:02 PM -20.7740 -45.0710 32° Northeast 504 580 35,000  Level FlightAware ADS-B
Thu 07:07:42 PM -20.6950 -45.0170 33° Northeast 507 583 35,000  Level FlightAware ADS-B
Thu 07:08:17 PM -20.6250 -44.9690 33° Northeast 511 588 35,000  Level FlightAware ADS-B
Thu 07:09:07 PM -20.5300 -44.9030 33° Northeast 512 589 35,000  Level FlightAware ADS-B
Thu 07:09:47 PM -20.4460 -44.8460 32° Northeast 512 589 35,000  Level FlightAware ADS-B
Thu 07:10:32 PM -20.3560 -44.7840 33° Northeast 512 589 35,000  Level FlightAware ADS-B
Thu 07:11:12 PM -20.2770 -44.7300 33° Northeast 510 587 35,000  Level FlightAware ADS-B
Thu 07:11:57 PM -20.1880 -44.6690 33° Northeast 511 588 35,000  Level FlightAware ADS-B
Thu 07:12:37 PM -20.1090 -44.6150 33° Northeast 507 583 35,000  Level FlightAware ADS-B
Thu 07:13:22 PM -20.0210 -44.5480 36° Northeast 508 585 35,000  Level FlightAware ADS-B
Thu 07:14:02 PM -19.9570 -44.4810 45° Northeast 510 587 35,000  Level FlightAware ADS-B
Thu 07:14:47 PM -19.8810 -44.3970 46° Northeast 513 590 35,000  Level FlightAware ADS-B
Thu 07:15:27 PM -19.8150 -44.3230 47° Northeast 516 594 35,000  Level FlightAware ADS-B
Thu 07:16:07 PM -19.7510 -44.2530 46° Northeast 516 594 35,000  Level FlightAware ADS-B
Thu 07:16:52 PM -19.6720 -44.1700 45° Northeast 516 594 35,000  Level FlightAware ADS-B
Thu 07:17:32 PM -19.6040 -44.0980 45° Northeast 517 595 35,000  Level FlightAware ADS-B
Thu 07:18:12 PM -19.5370 -44.0440 37° Northeast 508 585 35,000  Level FlightAware ADS-B
Thu 07:18:52 PM -19.4430 -44.0010 23° Northeast 504 580 35,000  Level FlightAware ADS-B
Thu 07:19:37 PM -19.3480 -43.9620 21° North 503 579 35,000  Level FlightAware ADS-B
Thu 07:20:22 PM -19.2490 -43.9220 21° North 503 579 35,000  Level FlightAware ADS-B
Thu 07:21:02 PM -19.1600 -43.8850 21° North 503 579 35,000  Level FlightAware ADS-B
Thu 07:21:42 PM -19.0770 -43.8510 21° North 503 579 35,000  Level FlightAware ADS-B
Thu 07:22:27 PM -18.9740 -43.8100 21° North 500 575 35,000  Level FlightAware ADS-B
Thu 07:23:07 PM -18.8890 -43.7750 21° North 499 574 35,000  Level FlightAware ADS-B
Thu 07:24:02 PM -18.7700 -43.7270 21° North 498 573 35,000  Level FlightAware ADS-B
Thu 07:24:47 PM -18.6710 -43.6860 21° North 498 573 35,000  Level FlightAware ADS-B
Thu 07:25:27 PM -18.5900 -43.6530 21° North 499 574 35,000  Level FlightAware ADS-B
Thu 07:26:07 PM -18.4990 -43.6170 21° North 498 573 35,000  Level FlightAware ADS-B
Thu 07:26:52 PM -18.4040 -43.5780 21° North 499 574 35,000  Level FlightAware ADS-B
Thu 07:27:32 PM -18.3170 -43.5430 21° North 499 574 35,000  Level FlightAware ADS-B
Thu 07:28:17 PM -18.2190 -43.5030 21° North 499 574 35,000  Level FlightAware ADS-B
Thu 07:28:57 PM -18.1320 -43.4680 21° North 499 574 35,000  Level FlightAware ADS-B
Thu 07:29:37 PM -18.0450 -43.4330 21° North 499 574 35,000  Level FlightAware ADS-B
Thu 07:30:22 PM -17.9520 -43.3960 21° North 499 574 35,000  Level FlightAware ADS-B
Thu 07:31:02 PM -17.8610 -43.3590 21° North 501 577 35,000  Level FlightAware ADS-B
Thu 07:31:47 PM -17.7640 -43.3200 21° North 502 578 35,000  Level FlightAware ADS-B
Thu 07:32:27 PM -17.6770 -43.2850 21° North 503 579 35,000  Level FlightAware ADS-B
Thu 07:33:07 PM -17.5910 -43.2510 21° North 503 579 35,000  Level FlightAware ADS-B
Thu 07:33:52 PM -17.4920 -43.2110 21° North 506 582 35,000  Level FlightAware ADS-B
Thu 07:34:27 PM -17.4140 -43.1800 21° North 508 585 35,000  Level FlightAware ADS-B
Thu 07:35:12 PM -17.3170 -43.1390 22° Northeast 511 588 35,000  Level FlightAware ADS-B
Thu 07:36:12 PM -17.1910 -43.0760 26° Northeast 513 590 35,000  Level FlightAware ADS-B
Thu 07:36:52 PM -17.1030 -43.0310 26° Northeast 513 590 35,000  Level FlightAware ADS-B
Thu 07:37:37 PM -17.0050 -42.9810 26° Northeast 514 592 35,000  Level FlightAware ADS-B
Thu 07:38:32 PM -16.8880 -42.9210 26° Northeast 514 592 35,000  Level FlightAware ADS-B
Thu 07:39:12 PM -16.8070 -42.8800 26° Northeast 515 593 35,000  Level FlightAware ADS-B
Thu 07:39:57 PM -16.7080 -42.8300 26° Northeast 515 593 35,000  Level FlightAware ADS-B
Thu 07:40:32 PM -16.6310 -42.7910 26° Northeast 513 590 35,000  Level FlightAware ADS-B
Thu 07:41:17 PM -16.5510 -42.7500 26° Northeast 513 590 35,000  Level FlightAware ADS-B
Thu 07:42:02 PM -16.4420 -42.6950 26° Northeast 513 590 35,000  Level FlightAware ADS-B
Thu 07:42:52 PM -16.3390 -42.6430 26° Northeast 513 590 35,000  Level FlightAware ADS-B
Thu 07:43:42 PM -16.2490 -42.5970 26° Northeast 513 590 35,000  Level FlightAware ADS-B
Thu 07:44:22 PM -16.1760 -42.5610 25° Northeast 513 590 35,000  Level FlightAware ADS-B
Thu 07:45:02 PM -16.1040 -42.5240 26° Northeast 513 590 35,000  Level FlightAware ADS-B
Thu 07:45:42 PM -16.0310 -42.4870 26° Northeast 513 590 35,000  Level FlightAware ADS-B
Thu 07:46:22 PM -15.9590 -42.4500 26° Northeast 513 590 35,000  Level FlightAware ADS-B
Thu 07:47:12 PM -15.8680 -42.4040 26° Northeast 513 590 35,000  Level FlightAware ADS-B
Thu 07:47:52 PM -15.7950 -42.3670 26° Northeast 513 590 35,000  Level FlightAware ADS-B
Thu 07:48:32 PM -15.7230 -42.3310 26° Northeast 513 590 35,000  Level FlightAware ADS-B
Thu 07:49:12 PM -15.6500 -42.2940 26° Northeast 513 590 35,000  Level FlightAware ADS-B
Thu 07:49:52 PM -15.5780 -42.2570 26° Northeast 513 590 35,000  Level FlightAware ADS-B
Thu 07:50:42 PM -15.4870 -42.2110 26° Northeast 513 590 35,000  Level FlightAware ADS-B
Thu 07:51:22 PM -15.4150 -42.1750 26° Northeast 513 590 35,000  Level FlightAware ADS-B
Thu 07:52:02 PM -15.3420 -42.1380 26° Northeast 513 590 35,000 -26 Level FlightAware ADS-B
Thu 07:54:00 PM -15.1220 -42.0146 28° Northeast  Level Estimated
Thu 07:55:00 PM -15.0102 -41.9519 28° Northeast  Level Estimated
Thu 07:56:00 PM -14.8983 -41.8893 28° Northeast  Level Estimated
Thu 07:57:00 PM -14.7864 -41.8268 28° Northeast  Level Estimated
Thu 07:58:00 PM -14.6745 -41.7643 28° Northeast  Level Estimated
Thu 07:59:00 PM -14.5625 -41.7019 28° Northeast  Level Estimated
Thu 08:00:00 PM -14.4506 -41.6396 28° Northeast  Level Estimated
Thu 08:01:00 PM -14.3386 -41.5773 28° Northeast  Level Estimated
Thu 08:02:00 PM -14.2266 -41.5151 28° Northeast  Level Estimated
Thu 08:03:00 PM -14.1146 -41.4529 28° Northeast  Level Estimated
Thu 08:04:00 PM -14.0026 -41.3908 28° Northeast  Level Estimated
Thu 08:05:00 PM -13.8906 -41.3288 28° Northeast  Level Estimated
Thu 08:06:00 PM -13.7785 -41.2668 28° Northeast  Level Estimated
Thu 08:07:00 PM -13.6664 -41.2049 28° Northeast  Level Estimated
Thu 08:08:00 PM -13.5544 -41.1431 28° Northeast  Level Estimated
Thu 08:09:00 PM -13.4423 -41.0813 28° Northeast  Level Estimated
Thu 08:10:00 PM -13.3302 -41.0195 28° Northeast  Level Estimated
Thu 08:11:00 PM -13.2181 -40.9579 28° Northeast  Level Estimated
Thu 08:12:00 PM -13.1059 -40.8962 28° Northeast  Level Estimated
Thu 08:13:00 PM -12.9938 -40.8347 28° Northeast  Level Estimated
Thu 08:14:00 PM -12.8816 -40.7732 28° Northeast  Level Estimated
Thu 08:15:00 PM -12.7694 -40.7117 28° Northeast  Level Estimated
Thu 08:16:00 PM -12.6572 -40.6503 28° Northeast  Level Estimated
Thu 08:17:00 PM -12.5450 -40.5890 28° Northeast  Level Estimated
Thu 08:18:00 PM -12.4328 -40.5277 28° Northeast  Level Estimated
Thu 08:19:00 PM -12.3205 -40.4664 28° Northeast  Level Estimated
Thu 08:20:00 PM -12.2083 -40.4052 28° Northeast  Level Estimated
Thu 08:21:00 PM -12.0960 -40.3441 28° Northeast  Level Estimated
Thu 08:22:00 PM -11.9837 -40.2830 28° Northeast  Level Estimated
Thu 08:23:00 PM -11.8671 -40.2196 28° Northeast  Level Estimated
Thu 08:24:00 PM -11.7504 -40.1562 28° Northeast  Level Estimated
Thu 08:25:00 PM -11.6336 -40.0929 28° Northeast  Level Estimated
Thu 08:26:00 PM -11.5169 -40.0297 28° Northeast  Level Estimated
Thu 08:27:00 PM -11.4002 -39.9664 28° Northeast  Level Estimated
Thu 08:28:00 PM -11.2835 -39.9033 28° Northeast  Level Estimated
Thu 08:29:00 PM -11.1667 -39.8402 28° Northeast  Level Estimated
Thu 08:30:00 PM -11.0499 -39.7771 28° Northeast  Level Estimated
Thu 08:31:00 PM -10.9331 -39.7141 28° Northeast  Level Estimated
Thu 08:32:00 PM -10.8163 -39.6512 28° Northeast  Level Estimated
Thu 08:33:00 PM -10.6995 -39.5883 28° Northeast  Level Estimated
Thu 08:34:00 PM -10.5827 -39.5254 28° Northeast  Level Estimated
Thu 08:35:00 PM -10.4658 -39.4626 28° Northeast  Level Estimated
Thu 08:36:00 PM -10.3490 -39.3999 28° Northeast  Level Estimated
Thu 08:37:00 PM -10.2321 -39.3372 28° Northeast  Level Estimated
Thu 08:38:00 PM -10.1153 -39.2745 28° Northeast  Level Estimated
Thu 08:39:00 PM -9.9984 -39.2119 28° Northeast  Level Estimated
Thu 08:40:00 PM -9.8815 -39.1493 28° Northeast  Level Estimated
Thu 08:41:00 PM -9.7646 -39.0868 28° Northeast  Level Estimated
Thu 08:42:00 PM -9.6476 -39.0243 28° Northeast  Level Estimated
Thu 08:43:00 PM -9.5307 -38.9618 28° Northeast  Level Estimated
Thu 08:44:00 PM -9.4138 -38.8994 28° Northeast  Level Estimated
Thu 08:45:00 PM -9.2968 -38.8371 28° Northeast  Level Estimated
Thu 08:46:00 PM -9.1799 -38.7747 28° Northeast  Level Estimated
Thu 08:47:00 PM -9.0629 -38.7125 28° Northeast  Level Estimated
Thu 08:48:00 PM -8.9459 -38.6502 28° Northeast  Level Estimated
Thu 08:49:00 PM -8.8289 -38.5880 28° Northeast  Level Estimated
Thu 08:50:00 PM -8.7119 -38.5259 28° Northeast  Level Estimated
Thu 08:51:00 PM -8.5949 -38.4637 28° Northeast  Level Estimated
Thu 08:52:00 PM -8.4778 -38.4017 28° Northeast  Level Estimated
Thu 08:53:00 PM -8.3608 -38.3396 28° Northeast  Level Estimated
Thu 08:54:00 PM -8.2437 -38.2776 28° Northeast  Level Estimated
Thu 08:55:00 PM -8.1267 -38.2157 28° Northeast  Level Estimated
Thu 08:56:00 PM -8.0096 -38.1537 28° Northeast  Level Estimated
Thu 08:57:00 PM -7.8925 -38.0918 28° Northeast  Level Estimated
Thu 08:58:00 PM -7.7755 -38.0300 28° Northeast  Level Estimated
Thu 08:59:00 PM -7.6584 -37.9682 28° Northeast  Level Estimated
Thu 09:00:00 PM -7.5413 -37.9064 28° Northeast  Level Estimated
Thu 09:01:00 PM -7.4242 -37.8446 28° Northeast  Level Estimated
Thu 09:02:00 PM -7.3070 -37.7829 28° Northeast  Level Estimated
Thu 09:03:00 PM -7.1899 -37.7212 28° Northeast  Level Estimated
Thu 09:04:00 PM -7.0728 -37.6595 28° Northeast  Level Estimated
Thu 09:05:00 PM -6.9556 -37.5979 28° Northeast  Level Estimated
Thu 09:06:00 PM -6.8385 -37.5363 28° Northeast  Level Estimated
Thu 09:07:00 PM -6.7213 -37.4747 28° Northeast  Level Estimated
Thu 09:07:42 PM -6.3540 -36.8380 28° Northeast 488 562 33,000  Level FlightAware ADS-B
Thu 09:08:00 PM -6.6041 -37.4132 28° Northeast  Level Estimated
Thu 09:08:17 PM -6.2740 -36.8160 15° North 485 558 33,000  Level FlightAware ADS-B
Thu 09:09:07 PM -6.1710 -36.7870 16° North 485 558 33,000  Level FlightAware ADS-B
Thu 09:09:47 PM -6.0850 -36.7630 16° North 485 558 33,000  Level FlightAware ADS-B
Thu 09:10:22 PM -6.0010 -36.7380 16° North 484 557 33,000  Level FlightAware ADS-B
Thu 09:11:12 PM -5.8960 -36.7070 16° North 487 560 33,000  Level FlightAware ADS-B
Thu 09:11:52 PM -5.8100 -36.6810 17° North 487 560 33,000  Level FlightAware ADS-B
Thu 09:12:37 PM -5.7190 -36.6530 17° North 492 566 33,000  Level FlightAware ADS-B
Thu 09:13:17 PM -5.6210 -36.6230 17° North 490 564 33,000  Level FlightAware ADS-B
Thu 09:14:02 PM -5.5300 -36.5960 16° North 488 562 33,000  Level FlightAware ADS-B
Thu 09:14:42 PM -5.4380 -36.5680 17° North 487 560 33,000  Level FlightAware ADS-B
Thu 09:15:27 PM -5.3390 -36.5390 16° North 487 560 33,000  Level FlightAware ADS-B
Thu 09:16:02 PM -5.2650 -36.5160 17° North 488 562 33,000  Level FlightAware ADS-B
Thu 09:16:52 PM -5.1590 -36.4840 17° North 489 563 33,000  Level FlightAware ADS-B
Thu 09:17:22 PM -5.0980 -36.4660 16° North 490 564 33,000 75 Level FlightAware ADS-B
Thu 09:18:12 PM -4.9790 -36.4300 17° North 492 566 33,100 568 Climbing FlightAware ADS-B
Thu 09:18:57 PM -4.8880 -36.4030 16° North 490 564 33,900 1,129 Climbing FlightAware ADS-B
Thu 09:19:37 PM -4.7960 -36.3750 17° North 489 563 34,700 825 Climbing FlightAware ADS-B
Thu 09:20:17 PM -4.7100 -36.3500 16° North 488 562 35,000 212 Climbing FlightAware ADS-B
Thu 09:21:02 PM -4.6070 -36.3180 17° North 491 565 35,000  Level FlightAware ADS-B
Thu 09:21:42 PM -4.5170 -36.2910 17° North 491 565 35,000  Level FlightAware ADS-B
Thu 09:22:22 PM -4.4310 -36.2650 17° North 491 565 35,000  Level FlightAware ADS-B
Thu 09:22:57 PM -4.3560 -36.2430 16° North 491 565 35,000  Level FlightAware ADS-B
Thu 09:23:42 PM -4.2700 -36.2180 16° North 491 565 35,000  Level FlightAware ADS-B
Thu 09:24:27 PM -4.1590 -36.1840 17° North 491 565 35,000  Level FlightAware ADS-B
Thu 09:25:12 PM -4.0600 -36.1540 17° North 492 566 35,000  Level FlightAware ADS-B
Thu 09:25:52 PM -3.9740 -36.1280 17° North 493 567 35,000  Level FlightAware ADS-B
Thu 09:26:37 PM -3.8810 -36.1010 16° North 493 567 35,000  Level FlightAware ADS-B
Thu 09:27:22 PM -3.7770 -36.0690 17° North 484 557 35,000  Level FlightAware ADS-B
Thu 09:28:12 PM -3.6680 -36.0360 17° North 485 558 35,000  Level FlightAware ADS-B
Thu 09:28:57 PM -3.5840 -36.0110 17° North 485 558 35,000  Level FlightAware ADS-B
Thu 09:29:37 PM -3.5110 -35.9880 17° North 485 558 35,000  Level FlightAware ADS-B
Thu 09:30:17 PM -3.4380 -35.9660 17° North 485 558 35,000  Level FlightAware ADS-B
Thu 09:31:02 PM -3.3010 -35.9260 16° North 490 564 35,000  Level FlightAware ADS-B
Thu 09:31:37 PM -3.2300 -35.9060 16° North 490 564 35,000  Level FlightAware ADS-B
Thu 09:32:27 PM -3.1380 -35.8800 16° North 490 564 35,000  Level FlightAware ADS-B
Thu 09:33:07 PM -3.0640 -35.8580 17° North 490 564 35,000  Level FlightAware ADS-B
Thu 09:33:47 PM -2.9890 -35.8370 16° North 490 564 35,000  Level FlightAware ADS-B
Thu 09:34:27 PM -2.9150 -35.8160 16° North 490 564 35,000  Level FlightAware ADS-B
Thu 09:35:07 PM -2.7720 -35.7690 18° North 487 560 35,000  Level FlightAware ADS-B
Thu 09:35:57 PM -2.6790 -35.7420 16° North 487 560 35,000  Level FlightAware ADS-B
Thu 09:36:37 PM -2.6060 -35.7210 16° North 487 560 35,000  Level FlightAware ADS-B
Thu 09:37:17 PM -2.5320 -35.7000 16° North 487 560 35,000  Level FlightAware ADS-B
Thu 09:37:57 PM -2.4590 -35.6790 16° North 487 560 35,000  Level FlightAware ADS-B
Thu 09:38:37 PM -2.3850 -35.6580 16° North 487 560 35,000  Level FlightAware ADS-B
Thu 09:39:27 PM -2.2930 -35.6310 16° North 487 560 35,000  Level FlightAware ADS-B
Thu 09:40:07 PM -2.2190 -35.6100 16° North 487 560 35,000  Level FlightAware ADS-B
Thu 09:40:47 PM -2.1460 -35.5890 16° North 487 560 35,000  Level FlightAware ADS-B
Thu 09:41:27 PM -2.0720 -35.5680 16° North 487 560 35,000  Level FlightAware ADS-B
Thu 09:42:07 PM -1.9980 -35.5470 16° North 487 560 35,000  Level FlightAware ADS-B
Thu 09:42:57 PM -1.9060 -35.5200 16° North 487 560 35,000  Level FlightAware ADS-B
Thu 09:43:37 PM -1.8330 -35.4990 16° North 487 560 35,000  Level FlightAware ADS-B
Thu 09:44:17 PM -1.7590 -35.4780 16° North 487 560 35,000  Level FlightAware ADS-B
Thu 09:46:00 PM -1.5581 -35.3726 28° Northeast  Level Estimated
Thu 09:47:00 PM -1.4411 -35.3112 28° Northeast  Level Estimated
Thu 09:48:00 PM -1.3240 -35.2498 28° Northeast  Level Estimated
Thu 09:49:00 PM -1.2070 -35.1884 28° Northeast  Level Estimated
Thu 09:50:00 PM -1.0899 -35.1270 28° Northeast  Level Estimated
Thu 09:51:00 PM -0.9729 -35.0657 28° Northeast  Level Estimated
Thu 09:52:00 PM -0.8558 -35.0043 28° Northeast  Level Estimated
Thu 09:53:00 PM -0.7388 -34.9429 28° Northeast  Level Estimated
Thu 09:54:00 PM -0.6218 -34.8816 28° Northeast  Level Estimated
Thu 09:55:00 PM -0.5047 -34.8202 28° Northeast  Level Estimated
Thu 09:56:00 PM -0.3877 -34.7589 28° Northeast  Level Estimated
Thu 09:57:00 PM -0.2706 -34.6975 28° Northeast  Level Estimated
Thu 09:58:00 PM -0.1536 -34.6361 28° Northeast  Level Estimated
Thu 09:59:00 PM -0.0365 -34.5748 28° Northeast  Level Estimated
Thu 10:00:00 PM 0.0805 -34.5134 28° Northeast  Level Estimated
Thu 10:01:00 PM 0.1976 -34.4521 28° Northeast  Level Estimated
Thu 10:02:00 PM 0.3146 -34.3907 28° Northeast  Level Estimated
Thu 10:03:00 PM 0.4317 -34.3293 28° Northeast  Level Estimated
Thu 10:04:00 PM 0.5487 -34.2680 28° Northeast  Level Estimated
Thu 10:05:00 PM 0.6658 -34.2066 28° Northeast  Level Estimated
Thu 10:06:00 PM 0.7828 -34.1453 28° Northeast  Level Estimated
Thu 10:07:00 PM 0.8998 -34.0839 28° Northeast  Level Estimated
Thu 10:08:00 PM 1.0169 -34.0225 28° Northeast  Level Estimated
Thu 10:09:00 PM 1.1339 -33.9612 28° Northeast  Level Estimated
Thu 10:10:00 PM 1.2509 -33.8998 28° Northeast  Level Estimated
Thu 10:11:00 PM 1.3680 -33.8384 28° Northeast  Level Estimated
Thu 10:12:00 PM 1.4850 -33.7770 28° Northeast  Level Estimated
Thu 10:13:00 PM 1.6021 -33.7156 28° Northeast  Level Estimated
Thu 10:14:00 PM 1.7191 -33.6542 28° Northeast  Level Estimated
Thu 10:15:00 PM 1.8361 -33.5928 28° Northeast  Level Estimated
Thu 10:16:00 PM 1.9532 -33.5313 28° Northeast  Level Estimated
Thu 10:17:00 PM 2.0702 -33.4699 28° Northeast  Level Estimated
Thu 10:18:00 PM 2.1872 -33.4085 28° Northeast  Level Estimated
Thu 10:19:00 PM 2.3042 -33.3470 28° Northeast  Level Estimated
Thu 10:20:00 PM 2.4212 -33.2856 28° Northeast  Level Estimated
Thu 10:21:00 PM 2.5383 -33.2241 28° Northeast  Level Estimated
Thu 10:22:00 PM 2.6553 -33.1626 28° Northeast  Level Estimated
Thu 10:23:00 PM 2.7723 -33.1011 28° Northeast  Level Estimated
Thu 10:24:00 PM 2.8893 -33.0396 28° Northeast  Level Estimated
Thu 10:25:00 PM 3.0063 -32.9781 28° Northeast  Level Estimated
Thu 10:26:00 PM 3.1233 -32.9166 28° Northeast  Level Estimated
Thu 10:27:00 PM 3.2403 -32.8550 28° Northeast  Level Estimated
Thu 10:28:00 PM 3.3573 -32.7935 28° Northeast  Level Estimated
Thu 10:29:00 PM 3.4743 -32.7319 28° Northeast  Level Estimated
Thu 10:30:00 PM 3.5912 -32.6703 28° Northeast  Level Estimated
Thu 10:31:00 PM 3.7082 -32.6087 28° Northeast  Level Estimated
Thu 10:32:00 PM 3.8252 -32.5471 28° Northeast  Level Estimated
Thu 10:33:00 PM 3.9422 -32.4855 28° Northeast  Level Estimated
Thu 10:34:00 PM 4.0592 -32.4238 28° Northeast  Level Estimated
Thu 10:35:00 PM 4.1761 -32.3621 28° Northeast  Level Estimated
Thu 10:36:00 PM 4.2931 -32.3004 28° Northeast  Level Estimated
Thu 10:37:00 PM 4.4100 -32.2387 28° Northeast  Level Estimated
Thu 10:38:00 PM 4.5270 -32.1770 28° Northeast  Level Estimated
Thu 10:39:00 PM 4.6439 -32.1153 28° Northeast  Level Estimated
Thu 10:40:00 PM 4.7608 -32.0535 28° Northeast  Level Estimated
Thu 10:41:00 PM 4.8778 -31.9917 28° Northeast  Level Estimated
Thu 10:42:00 PM 4.9947 -31.9299 28° Northeast  Level Estimated
Thu 10:43:00 PM 5.1116 -31.8681 28° Northeast  Level Estimated
Thu 10:44:00 PM 5.2285 -31.8062 28° Northeast  Level Estimated
Thu 10:45:00 PM 5.3454 -31.7443 28° Northeast  Level Estimated
Thu 10:46:00 PM 5.4623 -31.6824 28° Northeast  Level Estimated
Thu 10:47:00 PM 5.5792 -31.6205 28° Northeast  Level Estimated
Thu 10:48:00 PM 5.6961 -31.5585 28° Northeast  Level Estimated
Thu 10:49:00 PM 5.8130 -31.4966 28° Northeast  Level Estimated
Thu 10:50:00 PM 5.9299 -31.4346 28° Northeast  Level Estimated
Thu 10:51:00 PM 6.0468 -31.3725 28° Northeast  Level Estimated
Thu 10:52:00 PM 6.1636 -31.3105 28° Northeast  Level Estimated
Thu 10:53:00 PM 6.2805 -31.2484 28° Northeast  Level Estimated
Thu 10:54:00 PM 6.3973 -31.1863 28° Northeast  Level Estimated
Thu 10:55:00 PM 6.5142 -31.1241 28° Northeast  Level Estimated
Thu 10:56:00 PM 6.6310 -31.0620 28° Northeast  Level Estimated
Thu 10:57:00 PM 6.7478 -30.9998 28° Northeast  Level Estimated
Thu 10:58:00 PM 6.8646 -30.9375 28° Northeast  Level Estimated
Thu 10:59:00 PM 6.9815 -30.8753 28° Northeast  Level Estimated
Thu 11:00:00 PM 7.0982 -30.8130 28° Northeast  Level Estimated
Thu 11:01:00 PM 7.2150 -30.7507 28° Northeast  Level Estimated
Thu 11:02:00 PM 7.3318 -30.6883 28° Northeast  Level Estimated
Thu 11:03:00 PM 7.4486 -30.6259 28° Northeast  Level Estimated
Thu 11:04:00 PM 7.5654 -30.5635 28° Northeast  Level Estimated
Thu 11:05:00 PM 7.6821 -30.5011 28° Northeast  Level Estimated
Thu 11:06:00 PM 7.7989 -30.4386 28° Northeast  Level Estimated
Thu 11:07:00 PM 7.9156 -30.3761 28° Northeast  Level Estimated
Thu 11:08:00 PM 8.0323 -30.3135 28° Northeast  Level Estimated
Thu 11:09:00 PM 8.1491 -30.2509 28° Northeast  Level Estimated
Thu 11:10:00 PM 8.2658 -30.1883 28° Northeast  Level Estimated
Thu 11:11:00 PM 8.3825 -30.1256 28° Northeast  Level Estimated
Thu 11:12:00 PM 8.4992 -30.0629 28° Northeast  Level Estimated
Thu 11:13:00 PM 8.6159 -30.0002 28° Northeast  Level Estimated
Thu 11:14:00 PM 8.7325 -29.9374 28° Northeast  Level Estimated
Thu 11:15:00 PM 8.8492 -29.8745 28° Northeast  Level Estimated
Thu 11:16:00 PM 8.9658 -29.8117 28° Northeast  Level Estimated
Thu 11:17:00 PM 9.0825 -29.7488 28° Northeast  Level Estimated
Thu 11:18:00 PM 9.1991 -29.6859 28° Northeast  Level Estimated
Thu 11:19:00 PM 9.3157 -29.6229 28° Northeast  Level Estimated
Thu 11:20:00 PM 9.4323 -29.5598 28° Northeast  Level Estimated
Thu 11:21:00 PM 9.5489 -29.4968 28° Northeast  Level Estimated
Thu 11:22:00 PM 9.6655 -29.4337 28° Northeast  Level Estimated
Thu 11:23:00 PM 9.7821 -29.3705 28° Northeast  Level Estimated
Thu 11:24:00 PM 9.8986 -29.3073 28° Northeast  Level Estimated
Thu 11:25:00 PM 10.0152 -29.2440 28° Northeast  Level Estimated
Thu 11:26:00 PM 10.1317 -29.1808 28° Northeast  Level Estimated
Thu 11:27:00 PM 10.2483 -29.1174 28° Northeast  Level Estimated
Thu 11:28:00 PM 10.3648 -29.0540 28° Northeast  Level Estimated
Thu 11:29:00 PM 10.4813 -28.9906 28° Northeast  Level Estimated
Thu 11:30:00 PM 10.5978 -28.9271 28° Northeast  Level Estimated
Thu 11:31:00 PM 10.7142 -28.8636 28° Northeast  Level Estimated
Thu 11:32:00 PM 10.8307 -28.8000 28° Northeast  Level Estimated
Thu 11:33:00 PM 10.9472 -28.7364 28° Northeast  Level Estimated
Thu 11:34:00 PM 11.0636 -28.6727 28° Northeast  Level Estimated
Thu 11:35:00 PM 11.1800 -28.6090 28° Northeast  Level Estimated
Thu 11:36:00 PM 11.2964 -28.5452 28° Northeast  Level Estimated
Thu 11:37:00 PM 11.4128 -28.4814 28° Northeast  Level Estimated
Thu 11:38:00 PM 11.5292 -28.4175 28° Northeast  Level Estimated
Thu 11:39:00 PM 11.6456 -28.3536 28° Northeast  Level Estimated
Thu 11:40:00 PM 11.7619 -28.2896 28° Northeast  Level Estimated
Thu 11:41:00 PM 11.8783 -28.2255 28° Northeast  Level Estimated
Thu 11:42:00 PM 11.9946 -28.1614 28° Northeast  Level Estimated
Thu 11:43:00 PM 12.1109 -28.0973 28° Northeast  Level Estimated
Thu 11:44:00 PM 12.2272 -28.0331 28° Northeast  Level Estimated
Thu 11:45:00 PM 12.3435 -27.9688 28° Northeast  Level Estimated
Thu 11:46:00 PM 12.4598 -27.9045 28° Northeast  Level Estimated
Thu 11:47:00 PM 12.5760 -27.8401 28° Northeast  Level Estimated
Thu 11:48:00 PM 12.6922 -27.7757 28° Northeast  Level Estimated
Thu 11:49:00 PM 12.8085 -27.7112 28° Northeast  Level Estimated
Thu 11:50:00 PM 12.9247 -27.6466 28° Northeast  Level Estimated
Thu 11:51:00 PM 13.0408 -27.5820 28° Northeast  Level Estimated
Thu 11:52:00 PM 13.1570 -27.5173 28° Northeast  Level Estimated
Thu 11:53:00 PM 13.2732 -27.4526 28° Northeast  Level Estimated
Thu 11:54:00 PM 13.3893 -27.3878 28° Northeast  Level Estimated
Thu 11:55:00 PM 13.5054 -27.3229 29° Northeast  Level Estimated
Thu 11:56:00 PM 13.6215 -27.2580 29° Northeast  Level Estimated
Thu 11:57:00 PM 13.7376 -27.1930 29° Northeast  Level Estimated
Thu 11:58:00 PM 13.8537 -27.1279 29° Northeast  Level Estimated
Thu 11:59:00 PM 13.9698 -27.0628 29° Northeast  Level Estimated
Fri 12:00:00 AM 14.0858 -26.9976 29° Northeast  Level Estimated
Fri 12:01:00 AM 14.2018 -26.9324 29° Northeast  Level Estimated
Fri 12:02:00 AM 14.3178 -26.8671 29° Northeast  Level Estimated
Fri 12:03:00 AM 14.4338 -26.8017 29° Northeast  Level Estimated
Fri 12:04:00 AM 14.5498 -26.7362 29° Northeast  Level Estimated
Fri 12:05:00 AM 14.6657 -26.6707 29° Northeast  Level Estimated
Fri 12:06:00 AM 14.7817 -26.6051 29° Northeast  Level Estimated
Fri 12:07:00 AM 14.8976 -26.5395 29° Northeast  Level Estimated
Fri 12:08:00 AM 15.0135 -26.4737 29° Northeast  Level Estimated
Fri 12:09:00 AM 15.1293 -26.4079 29° Northeast  Level Estimated
Fri 12:10:00 AM 15.2452 -26.3421 29° Northeast  Level Estimated
Fri 12:11:00 AM 15.3610 -26.2761 29° Northeast  Level Estimated
Fri 12:12:00 AM 15.4768 -26.2101 29° Northeast  Level Estimated
Fri 12:13:00 AM 15.5927 -26.1440 29° Northeast  Level Estimated
Fri 12:14:00 AM 15.7084 -26.0778 29° Northeast  Level Estimated
Fri 12:15:00 AM 15.8242 -26.0116 29° Northeast  Level Estimated
Fri 12:16:00 AM 15.9399 -25.9452 29° Northeast  Level Estimated
Fri 12:17:00 AM 16.0557 -25.8788 29° Northeast  Level Estimated
Fri 12:18:00 AM 16.1714 -25.8124 29° Northeast  Level Estimated
Fri 12:19:00 AM 16.2870 -25.7458 29° Northeast  Level Estimated
Fri 12:20:00 AM 16.4027 -25.6792 29° Northeast  Level Estimated
Fri 12:21:00 AM 16.5183 -25.6125 29° Northeast  Level Estimated
Fri 12:22:00 AM 16.6339 -25.5457 29° Northeast  Level Estimated
Fri 12:23:00 AM 16.7495 -25.4788 29° Northeast  Level Estimated
Fri 12:24:00 AM 16.8651 -25.4119 29° Northeast  Level Estimated
Fri 12:25:00 AM 16.9806 -25.3448 29° Northeast  Level Estimated
Fri 12:26:00 AM 17.0962 -25.2777 29° Northeast  Level Estimated
Fri 12:27:00 AM 17.2117 -25.2105 29° Northeast  Level Estimated
Fri 12:28:00 AM 17.3271 -25.1432 29° Northeast  Level Estimated
Fri 12:29:00 AM 17.4426 -25.0759 29° Northeast  Level Estimated
Fri 12:30:00 AM 17.5580 -25.0084 29° Northeast  Level Estimated
Fri 12:31:00 AM 17.6735 -24.9409 29° Northeast  Level Estimated
Fri 12:32:00 AM 17.7888 -24.8732 29° Northeast  Level Estimated
Fri 12:33:00 AM 17.9042 -24.8055 29° Northeast  Level Estimated
Fri 12:34:00 AM 18.0196 -24.7377 29° Northeast  Level Estimated
Fri 12:35:00 AM 18.1349 -24.6698 29° Northeast  Level Estimated
Fri 12:36:00 AM 18.2502 -24.6019 29° Northeast  Level Estimated
Fri 12:37:00 AM 18.3654 -24.5338 29° Northeast  Level Estimated
Fri 12:38:00 AM 18.4807 -24.4656 29° Northeast  Level Estimated
Fri 12:39:00 AM 18.5959 -24.3974 29° Northeast  Level Estimated
Fri 12:40:00 AM 18.7111 -24.3290 29° Northeast  Level Estimated
Fri 12:41:00 AM 18.8263 -24.2606 29° Northeast  Level Estimated
Fri 12:42:00 AM 18.9414 -24.1921 29° Northeast  Level Estimated
Fri 12:43:00 AM 19.0565 -24.1234 29° Northeast  Level Estimated
Fri 12:44:00 AM 19.1716 -24.0547 29° Northeast  Level Estimated
Fri 12:45:00 AM 19.2867 -23.9859 29° Northeast  Level Estimated
Fri 12:46:00 AM 19.4018 -23.9170 29° Northeast  Level Estimated
Fri 12:47:00 AM 19.5168 -23.8480 29° Northeast  Level Estimated
Fri 12:48:00 AM 19.6318 -23.7789 30° Northeast  Level Estimated
Fri 12:49:00 AM 19.7467 -23.7096 30° Northeast  Level Estimated
Fri 12:50:00 AM 19.8617 -23.6403 30° Northeast  Level Estimated
Fri 12:51:00 AM 19.9766 -23.5709 30° Northeast  Level Estimated
Fri 12:52:00 AM 20.0915 -23.5014 30° Northeast  Level Estimated
Fri 12:53:00 AM 20.2064 -23.4318 30° Northeast  Level Estimated
Fri 12:54:00 AM 20.3212 -23.3621 30° Northeast  Level Estimated
Fri 12:55:00 AM 20.4360 -23.2923 30° Northeast  Level Estimated
Fri 12:56:00 AM 20.5508 -23.2223 30° Northeast  Level Estimated
Fri 12:57:00 AM 20.6655 -23.1523 30° Northeast  Level Estimated
Fri 12:58:00 AM 20.7803 -23.0822 30° Northeast  Level Estimated
Fri 12:59:00 AM 20.8949 -23.0119 30° Northeast  Level Estimated
Fri 01:00:00 AM 21.0096 -22.9416 30° Northeast  Level Estimated
Fri 01:01:00 AM 21.1242 -22.8711 30° Northeast  Level Estimated
Fri 01:02:00 AM 21.2388 -22.8005 30° Northeast  Level Estimated
Fri 01:03:00 AM 21.3534 -22.7299 30° Northeast  Level Estimated
Fri 01:04:00 AM 21.4680 -22.6591 30° Northeast  Level Estimated
Fri 01:05:00 AM 21.5825 -22.5882 30° Northeast  Level Estimated
Fri 01:06:00 AM 21.6970 -22.5172 30° Northeast  Level Estimated
Fri 01:07:00 AM 21.8114 -22.4460 30° Northeast  Level Estimated
Fri 01:08:00 AM 21.9259 -22.3748 30° Northeast  Level Estimated
Fri 01:09:00 AM 22.0403 -22.3034 30° Northeast  Level Estimated
Fri 01:10:00 AM 22.1546 -22.2320 30° Northeast  Level Estimated
Fri 01:11:00 AM 22.2690 -22.1604 30° Northeast  Level Estimated
Fri 01:11:42 AM 23.9070 -20.2630 30° Northeast 552 635 35,000  Level FlightAware ADS-B
Fri 01:12:00 AM 22.3833 -22.0887 30° Northeast  Level Estimated
Fri 01:12:22 AM 23.9820 -20.2120 32° Northeast 553 636 35,000  Level FlightAware ADS-B
Fri 01:13:07 AM 24.0890 -20.1380 32° Northeast 553 636 35,000  Level FlightAware ADS-B
Fri 01:13:47 AM 24.1800 -20.0750 32° Northeast 553 636 35,000  Level FlightAware ADS-B
Fri 01:14:32 AM 24.2660 -20.0160 32° Northeast 553 636 35,000  Level FlightAware ADS-B
Fri 01:15:12 AM 24.3400 -19.9650 32° Northeast 553 636 35,000  Level FlightAware ADS-B
Fri 01:15:57 AM 24.4660 -19.8770 32° Northeast 551 634 35,000  Level FlightAware ADS-B
Fri 01:16:37 AM 24.5430 -19.8250 32° Northeast 551 634 35,000  Level FlightAware ADS-B
Fri 01:17:17 AM 24.6160 -19.7740 32° Northeast 551 634 35,000  Level FlightAware ADS-B
Fri 01:17:57 AM 24.6900 -19.7230 32° Northeast 551 634 35,000  Level FlightAware ADS-B
Fri 01:18:37 AM 24.7630 -19.6730 32° Northeast 551 634 35,000  Level FlightAware ADS-B
Fri 01:19:27 AM 24.8550 -19.6100 32° Northeast 551 634 35,000  Level FlightAware ADS-B
Fri 01:20:07 AM 24.9280 -19.5590 32° Northeast 551 634 35,000  Level FlightAware ADS-B
Fri 01:20:42 AM 25.0710 -19.4160 42° Northeast 558 642 35,000  Level FlightAware ADS-B
Fri 01:21:32 AM 25.1560 -19.3080 49° Northeast 552 635 35,000  Level FlightAware ADS-B
Fri 01:22:42 AM 25.2750 -19.1550 49° Northeast 554 638 35,000  Level FlightAware ADS-B
Fri 01:23:12 AM 25.3250 -19.0910 49° Northeast 554 638 35,000  Level FlightAware ADS-B
Fri 01:24:32 AM 25.4540 -18.9270 49° Northeast 552 635 35,000  Level FlightAware ADS-B
Fri 01:25:57 AM 25.5970 -18.7420 49° Northeast 550 633 35,000  Level FlightAware ADS-B
Fri 01:26:37 AM 25.6660 -18.6530 49° Northeast 551 634 35,000  Level FlightAware ADS-B
Fri 01:27:22 AM 25.7420 -18.5560 49° Northeast 550 633 35,000  Level FlightAware ADS-B
Fri 01:28:02 AM 25.8090 -18.4690 49° Northeast 550 633 35,000  Level FlightAware ADS-B
Fri 01:28:47 AM 25.8840 -18.3710 50° Northeast 550 633 35,000  Level FlightAware ADS-B
Fri 01:29:27 AM 25.9510 -18.2850 49° Northeast 550 633 35,000 300 Level FlightAware ADS-B
Fri 01:30:07 AM 26.0160 -18.2000 50° Northeast 551 634 35,400 847 Climbing FlightAware ADS-B
Fri 01:30:52 AM 26.0940 -18.0980 50° Northeast 556 640 36,200 847 Climbing FlightAware ADS-B
Fri 01:31:32 AM 26.1600 -18.0120 49° Northeast 571 657 36,600 825 Climbing FlightAware ADS-B
Fri 01:32:12 AM 26.2300 -17.9190 50° Northeast 572 658 37,300 988 Climbing FlightAware ADS-B
Fri 01:32:57 AM 26.3060 -17.8200 49° Northeast 562 647 38,000 494 Climbing FlightAware ADS-B
Fri 01:33:37 AM 26.3740 -17.7310 50° Northeast 561 646 38,000  Level FlightAware ADS-B
Fri 01:34:22 AM 26.4510 -17.6300 50° Northeast 560 644 38,000  Level FlightAware ADS-B
Fri 01:35:02 AM 26.5170 -17.5420 50° Northeast 562 647 38,000  Level FlightAware ADS-B
Fri 01:35:47 AM 26.5950 -17.4390 50° Northeast 562 647 38,000  Level FlightAware ADS-B
Fri 01:36:27 AM 26.6610 -17.3510 50° Northeast 562 647 38,000  Level FlightAware ADS-B
Fri 01:37:07 AM 26.7280 -17.2620 50° Northeast 562 647 38,000  Level FlightAware ADS-B
Fri 01:37:52 AM 26.8040 -17.1600 50° Northeast 562 647 38,000  Level FlightAware ADS-B
Fri 01:38:32 AM 26.8710 -17.0710 50° Northeast 562 647 38,000  Level FlightAware ADS-B
Fri 01:39:17 AM 26.9480 -16.9680 50° Northeast 563 648 38,000  Level FlightAware ADS-B
Fri 01:39:57 AM 27.0170 -16.8750 50° Northeast 563 648 38,000  Level FlightAware ADS-B
Fri 01:40:37 AM 27.0860 -16.7840 50° Northeast 563 648 38,000  Level FlightAware ADS-B
Fri 01:41:22 AM 27.1590 -16.6840 51° Northeast 563 648 38,000  Level FlightAware ADS-B
Fri 01:42:02 AM 27.2260 -16.5950 50° Northeast 563 648 38,000  Level FlightAware ADS-B
Fri 01:42:47 AM 27.3020 -16.4910 51° Northeast 563 648 38,000  Level FlightAware ADS-B
Fri 01:43:27 AM 27.3690 -16.4000 50° Northeast 563 648 38,000  Level FlightAware ADS-B
Fri 01:44:07 AM 27.4380 -16.3070 50° Northeast 563 648 38,000  Level FlightAware ADS-B
Fri 01:44:52 AM 27.5120 -16.2070 50° Northeast 564 649 38,000  Level FlightAware ADS-B
Fri 01:45:32 AM 27.5780 -16.1160 51° Northeast 564 649 38,000  Level FlightAware ADS-B
Fri 01:46:12 AM 27.6460 -16.0230 50° Northeast 564 649 38,000  Level FlightAware ADS-B
Fri 01:46:57 AM 27.7200 -15.9210 51° Northeast 564 649 38,000  Level FlightAware ADS-B
Fri 01:47:37 AM 27.7890 -15.8270 50° Northeast 563 648 38,000  Level FlightAware ADS-B
Fri 01:48:17 AM 27.8540 -15.7370 51° Northeast 563 648 38,000  Level FlightAware ADS-B
Fri 01:49:02 AM 27.9310 -15.6310 51° Northeast 562 647 38,000  Level FlightAware ADS-B
Fri 01:49:42 AM 27.9970 -15.5410 50° Northeast 563 648 38,000  Level FlightAware ADS-B
Fri 01:50:27 AM 28.0770 -15.4460 46° Northeast 561 646 38,000  Level FlightAware ADS-B
Fri 01:51:07 AM 28.1710 -15.3960 25° Northeast 538 619 38,000  Level FlightAware ADS-B
Fri 01:51:52 AM 28.2790 -15.3580 17° North 539 620 38,000  Level FlightAware ADS-B
Fri 01:52:32 AM 28.3770 -15.3240 17° North 540 621 38,000  Level FlightAware ADS-B
Fri 01:53:17 AM 28.4860 -15.2860 17° North 541 623 38,000  Level FlightAware ADS-B
Fri 01:53:57 AM 28.5820 -15.2520 17° North 542 624 38,000  Level FlightAware ADS-B
Fri 01:54:27 AM 28.6550 -15.2260 17° North 542 624 38,000  Level FlightAware ADS-B
Fri 01:55:07 AM 28.7550 -15.1910 17° North 543 625 38,000  Level FlightAware ADS-B
Fri 01:55:47 AM 28.8540 -15.1560 17° North 552 635 38,000  Level FlightAware ADS-B
Fri 01:56:32 AM 28.9630 -15.1170 17° North 551 634 38,000  Level FlightAware ADS-B
Fri 01:57:12 AM 29.0610 -15.0820 17° North 553 636 38,000  Level FlightAware ADS-B
Fri 01:57:52 AM 29.1590 -15.0480 17° North 553 636 38,000  Level FlightAware ADS-B
Fri 01:58:52 AM 29.3020 -14.9970 17° North 554 638 38,000  Level FlightAware ADS-B
Fri 01:59:27 AM 29.3790 -14.9700 17° North 554 638 38,000  Level FlightAware ADS-B
Fri 02:00:07 AM 29.4920 -14.9280 18° North 555 639 38,000  Level FlightAware ADS-B
Fri 02:00:52 AM 29.5920 -14.8920 17° North 555 639 38,000  Level FlightAware ADS-B
Fri 02:01:27 AM 29.6810 -14.8600 17° North 555 639 38,000  Level FlightAware ADS-B
Fri 02:02:07 AM 29.7780 -14.8250 17° North 555 639 38,000  Level FlightAware ADS-B
Fri 02:02:47 AM 29.8770 -14.7900 17° North 555 639 38,000  Level FlightAware ADS-B
Fri 02:03:37 AM 30.0030 -14.7440 18° North 555 639 38,000  Level FlightAware ADS-B
Fri 02:04:32 AM 30.1420 -14.6940 17° North 555 639 38,000  Level FlightAware ADS-B
Fri 02:05:17 AM 30.2500 -14.6540 18° North 555 639 38,000  Level FlightAware ADS-B
Fri 02:05:57 AM 30.3480 -14.6190 17° North 554 638 38,000  Level FlightAware ADS-B
Fri 02:06:52 AM 30.4760 -14.5720 18° North 553 636 38,000  Level FlightAware ADS-B
Fri 02:07:37 AM 30.5910 -14.5290 18° North 546 628 38,000  Level FlightAware ADS-B
Fri 02:08:17 AM 30.6800 -14.4960 18° North 547 629 38,000  Level FlightAware ADS-B
Fri 02:08:57 AM 30.7680 -14.4230 35° Northeast 560 644 38,000  Level FlightAware ADS-B
Fri 02:09:42 AM 30.8690 -14.3490 32° Northeast 562 647 38,000  Level FlightAware ADS-B
Fri 02:10:17 AM 30.9400 -14.2950 33° Northeast 562 647 38,000  Level FlightAware ADS-B
Fri 02:11:07 AM 31.0320 -14.2250 33° Northeast 562 647 38,000  Level FlightAware ADS-B
Fri 02:11:47 AM 31.1060 -14.1690 33° Northeast 562 647 38,000  Level FlightAware ADS-B
Fri 02:12:32 AM 31.2400 -14.0550 36° Northeast 561 646 38,000  Level FlightAware ADS-B
Fri 02:13:07 AM 31.3130 -13.9970 34° Northeast 560 644 38,000  Level FlightAware ADS-B
Fri 02:14:02 AM 31.4220 -13.9100 34° Northeast 561 646 38,000  Level FlightAware ADS-B
Fri 02:14:42 AM 31.4960 -13.8520 34° Northeast 561 646 38,000  Level FlightAware ADS-B
Fri 02:15:32 AM 31.6180 -13.7540 34° Northeast 560 644 38,000  Level FlightAware ADS-B
Fri 02:16:12 AM 31.6910 -13.6960 34° Northeast 560 644 38,000  Level FlightAware ADS-B
Fri 02:16:52 AM 31.7640 -13.6380 34° Northeast 560 644 38,000  Level FlightAware ADS-B
Fri 02:17:32 AM 31.8370 -13.5800 34° Northeast 560 644 38,000  Level FlightAware ADS-B
Fri 02:18:22 AM 31.9890 -13.4520 36° Northeast 562 647 38,000  Level FlightAware ADS-B
Fri 02:19:17 AM 32.0940 -13.3680 34° Northeast 562 647 38,000  Level FlightAware ADS-B
Fri 02:19:57 AM 32.1670 -13.3100 34° Northeast 562 647 38,000  Level FlightAware ADS-B
Fri 02:20:37 AM 32.2400 -13.2510 34° Northeast 562 647 38,000  Level FlightAware ADS-B
Fri 02:21:17 AM 32.3140 -13.1930 34° Northeast 562 647 38,000  Level FlightAware ADS-B
Fri 02:22:07 AM 32.4050 -13.1200 34° Northeast 562 647 38,000  Level FlightAware ADS-B
Fri 02:22:47 AM 32.4780 -13.0610 34° Northeast 562 647 38,000  Level FlightAware ADS-B
Fri 02:23:42 AM 32.6620 -12.8990 37° Northeast 562 647 38,000  Level FlightAware ADS-B
Fri 02:24:17 AM 32.7440 -12.8320 34° Northeast 563 648 38,000  Level FlightAware ADS-B
Fri 02:25:07 AM 32.8520 -12.7410 35° Northeast 564 649 38,000  Level FlightAware ADS-B
Fri 02:26:02 AM 32.9610 -12.6510 35° Northeast 564 649 38,000  Level FlightAware ADS-B
Fri 02:26:42 AM 33.0450 -12.5810 35° Northeast 564 649 38,000  Level FlightAware ADS-B
Fri 02:27:27 AM 33.1340 -12.5060 35° Northeast 564 649 38,000  Level FlightAware ADS-B
Fri 02:28:07 AM 33.2060 -12.4450 35° Northeast 564 649 38,000  Level FlightAware ADS-B
Fri 02:28:47 AM 33.2790 -12.3850 34° Northeast 564 649 38,000  Level FlightAware ADS-B
Fri 02:29:27 AM 33.3520 -12.3240 35° Northeast 564 649 38,000  Level FlightAware ADS-B
Fri 02:30:07 AM 33.4240 -12.2630 35° Northeast 564 649 38,000  Level FlightAware ADS-B
Fri 02:30:57 AM 33.5150 -12.1870 35° Northeast 564 649 38,000  Level FlightAware ADS-B
Fri 02:31:37 AM 33.5880 -12.1250 35° Northeast 564 649 38,000  Level FlightAware ADS-B
Fri 02:32:17 AM 33.6610 -12.0640 35° Northeast 564 649 38,000  Level FlightAware ADS-B
Fri 02:32:57 AM 33.7330 -12.0030 35° Northeast 564 649 38,000  Level FlightAware ADS-B
Fri 02:33:47 AM 33.8240 -11.9270 35° Northeast 564 649 38,000  Level FlightAware ADS-B
Fri 02:34:27 AM 33.8970 -11.8650 35° Northeast 564 649 38,000  Level FlightAware ADS-B
Fri 02:35:07 AM 33.9690 -11.8040 35° Northeast 564 649 38,000  Level FlightAware ADS-B
Fri 02:35:47 AM 34.0420 -11.7430 35° Northeast 564 649 38,000  Level FlightAware ADS-B
Fri 02:36:27 AM 34.1150 -11.6810 35° Northeast 564 649 38,000  Level FlightAware ADS-B
Fri 02:39:00 AM 34.4037 -11.4707 31° Northeast  Level Estimated
Fri 02:40:00 AM 34.5168 -11.3878 31° Northeast  Level Estimated
Fri 02:41:00 AM 34.6299 -11.3047 31° Northeast  Level Estimated
Fri 02:42:00 AM 34.7429 -11.2213 31° Northeast  Level Estimated
Fri 02:42:52 AM 35.0960 -10.8090 31° Northeast 557 641 38,000  Level FlightAware ADS-B
Fri 02:43:32 AM 35.1810 -10.7340 36° Northeast 557 641 38,000  Level FlightAware ADS-B
Fri 02:44:27 AM 35.2930 -10.6330 36° Northeast 563 648 38,000  Level FlightAware ADS-B
Fri 02:45:02 AM 35.3650 -10.5690 36° Northeast 563 648 38,000  Level FlightAware ADS-B
Fri 02:45:47 AM 35.4570 -10.4860 36° Northeast 562 647 38,000  Level FlightAware ADS-B
Fri 02:46:37 AM 35.5690 -10.3850 36° Northeast 562 647 38,000  Level FlightAware ADS-B
Fri 02:47:17 AM 35.6530 -10.3090 36° Northeast 562 647 38,000  Level FlightAware ADS-B
Fri 02:47:57 AM 35.7370 -10.2330 36° Northeast 562 647 38,000  Level FlightAware ADS-B
Fri 02:48:42 AM 35.8300 -10.1480 37° Northeast 562 647 38,000  Level FlightAware ADS-B
Fri 02:49:17 AM 35.9030 -10.0820 36° Northeast 562 647 38,000  Level FlightAware ADS-B
Fri 02:50:02 AM 36.0010 -9.9980 35° Northeast 553 636 38,000  Level FlightAware ADS-B
Fri 02:50:47 AM 36.0980 -9.9230 32° Northeast 553 636 38,000  Level FlightAware ADS-B
Fri 02:51:37 AM 36.2070 -9.8380 32° Northeast 553 636 38,000  Level FlightAware ADS-B
Fri 02:52:22 AM 36.2990 -9.7670 32° Northeast 554 638 38,000  Level FlightAware ADS-B
Fri 02:53:07 AM 36.3900 -9.6970 32° Northeast 554 638 38,000  Level FlightAware ADS-B
Fri 02:53:47 AM 36.4930 -9.6160 32° Northeast 553 636 38,000  Level FlightAware ADS-B
Fri 02:54:47 AM 36.6200 -9.5170 32° Northeast 554 638 38,000  Level FlightAware ADS-B
Fri 02:55:27 AM 36.7140 -9.4440 32° Northeast 554 638 38,000  Level FlightAware ADS-B
Fri 02:56:07 AM 36.8020 -9.3750 32° Northeast 555 639 38,000  Level FlightAware ADS-B
Fri 02:56:52 AM 36.9000 -9.2980 32° Northeast 555 639 38,000  Level FlightAware ADS-B
Fri 02:57:32 AM 36.9890 -9.2270 32° Northeast 555 639 38,000  Level FlightAware ADS-B
Fri 02:58:12 AM 37.0750 -9.1590 32° Northeast 554 638 38,000  Level FlightAware ADS-B
Fri 02:58:57 AM 37.1750 -9.0800 32° Northeast 553 636 38,000  Level FlightAware ADS-B
Fri 02:59:37 AM 37.2620 -9.0110 32° Northeast 552 635 38,000  Level FlightAware ADS-B
Fri 03:00:17 AM 37.3440 -8.9430 33° Northeast 552 635 38,000  Level FlightAware ADS-B
Fri 03:00:52 AM 37.4230 -8.8810 32° Northeast 552 635 38,000  Level FlightAware ADS-B
Fri 03:01:42 AM 37.5340 -8.7920 32° Northeast 558 642 38,000  Level FlightAware ADS-B
Fri 03:02:22 AM 37.6120 -8.7290 33° Northeast 557 641 38,000  Level FlightAware ADS-B
Fri 03:03:02 AM 37.7030 -8.6560 32° Northeast 557 641 38,000  Level FlightAware ADS-B
Fri 03:04:02 AM 37.8300 -8.5530 33° Northeast 556 640 38,000  Level FlightAware ADS-B
Fri 03:04:47 AM 37.9340 -8.4680 33° Northeast 557 641 38,000  Level FlightAware ADS-B
Fri 03:05:27 AM 38.0200 -8.3980 33° Northeast 557 641 38,000  Level FlightAware ADS-B
Fri 03:06:12 AM 38.1190 -8.3170 33° Northeast 557 641 38,000  Level FlightAware ADS-B
Fri 03:06:52 AM 38.2010 -8.2490 33° Northeast 558 642 38,000  Level FlightAware ADS-B
Fri 03:07:47 AM 38.3250 -8.1480 33° Northeast 558 642 38,000  Level FlightAware ADS-B
Fri 03:08:32 AM 38.4140 -8.0730 33° Northeast 558 642 38,000  Level FlightAware ADS-B
Fri 03:09:12 AM 38.5060 -7.9970 33° Northeast 557 641 38,000  Level FlightAware ADS-B
Fri 03:09:52 AM 38.5900 -7.9270 33° Northeast 558 642 38,000  Level FlightAware ADS-B
Fri 03:10:37 AM 38.6930 -7.8410 33° Northeast 558 642 38,000  Level FlightAware ADS-B
Fri 03:11:17 AM 38.7820 -7.7670 33° Northeast 556 640 38,000  Level FlightAware ADS-B
Fri 03:11:57 AM 38.8590 -7.7020 33° Northeast 555 639 38,000  Level FlightAware ADS-B
Fri 03:12:42 AM 38.9620 -7.6150 33° Northeast 555 639 38,000  Level FlightAware ADS-B
Fri 03:13:22 AM 39.0500 -7.5410 33° Northeast 555 639 38,000  Level FlightAware ADS-B
Fri 03:14:07 AM 39.1430 -7.4630 33° Northeast 552 635 38,000  Level FlightAware ADS-B
Fri 03:15:02 AM 39.2590 -7.3630 34° Northeast 553 636 38,000  Level FlightAware ADS-B
Fri 03:15:42 AM 39.3480 -7.2880 33° Northeast 553 636 38,000  Level FlightAware ADS-B
Fri 03:16:27 AM 39.4470 -7.2100 31° Northeast 551 634 38,000  Level FlightAware ADS-B
Fri 03:17:07 AM 39.5340 -7.1430 31° Northeast 552 635 38,000  Level FlightAware ADS-B
Fri 03:17:52 AM 39.6320 -7.0660 31° Northeast 554 638 38,000  Level FlightAware ADS-B
Fri 03:18:32 AM 39.7180 -6.9990 31° Northeast 554 638 38,000  Level FlightAware ADS-B
Fri 03:19:12 AM 39.8070 -6.9280 31° Northeast 553 636 38,000  Level FlightAware ADS-B
Fri 03:19:57 AM 39.9040 -6.8510 31° Northeast 553 636 38,000  Level FlightAware ADS-B
Fri 03:20:37 AM 39.9910 -6.7810 32° Northeast 552 635 38,000  Level FlightAware ADS-B
Fri 03:21:22 AM 40.0900 -6.7020 31° Northeast 551 634 38,000  Level FlightAware ADS-B
Fri 03:22:02 AM 40.1750 -6.6330 32° Northeast 550 633 38,000  Level FlightAware ADS-B
Fri 03:22:42 AM 40.2620 -6.5630 32° Northeast 549 632 38,000  Level FlightAware ADS-B
Fri 03:23:27 AM 40.3560 -6.4870 32° Northeast 548 631 38,000  Level FlightAware ADS-B
Fri 03:24:12 AM 40.4550 -6.4070 32° Northeast 548 631 38,000  Level FlightAware ADS-B
Fri 03:24:52 AM 40.5420 -6.3370 31° Northeast 547 629 38,000  Level FlightAware ADS-B
Fri 03:25:32 AM 40.6280 -6.2730 29° Northeast 542 624 38,000  Level FlightAware ADS-B
Fri 03:26:12 AM 40.7170 -6.2100 28° Northeast 540 621 38,000  Level FlightAware ADS-B
Fri 03:26:57 AM 40.8160 -6.1420 27° Northeast 540 621 38,000  Level FlightAware ADS-B
Fri 03:27:37 AM 40.9030 -6.0810 28° Northeast 539 620 38,000  Level FlightAware ADS-B
Fri 03:28:22 AM 41.0030 -6.0120 28° Northeast 539 620 38,000  Level FlightAware ADS-B
Fri 03:29:02 AM 41.0860 -5.9530 28° Northeast 541 623 38,000  Level FlightAware ADS-B
Fri 03:29:47 AM 41.1900 -5.8810 28° Northeast 541 623 38,000  Level FlightAware ADS-B
Fri 03:30:27 AM 41.2780 -5.8190 28° Northeast 539 620 38,000  Level FlightAware ADS-B
Fri 03:31:07 AM 41.3660 -5.7560 28° Northeast 535 616 38,000  Level FlightAware ADS-B
Fri 03:31:52 AM 41.4640 -5.6870 28° Northeast 534 615 38,000  Level FlightAware ADS-B
Fri 03:32:32 AM 41.5500 -5.6300 26° Northeast 529 609 38,000  Level FlightAware ADS-B
Fri 03:33:17 AM 41.6510 -5.5710 24° Northeast 525 604 38,000  Level FlightAware ADS-B
Fri 03:33:57 AM 41.7400 -5.5220 22° Northeast 519 597 38,000  Level FlightAware ADS-B
Fri 03:34:37 AM 41.8270 -5.4720 23° Northeast 514 592 38,000  Level FlightAware ADS-B
Fri 03:35:22 AM 41.9260 -5.4150 23° Northeast 511 588 38,000  Level FlightAware ADS-B
Fri 03:36:02 AM 42.0130 -5.3660 23° Northeast 511 588 38,000  Level FlightAware ADS-B
Fri 03:36:47 AM 42.1100 -5.3110 23° Northeast 510 587 38,000  Level FlightAware ADS-B
Fri 03:37:27 AM 42.1970 -5.2610 23° Northeast 510 587 38,000  Level FlightAware ADS-B
Fri 03:38:12 AM 42.2940 -5.2050 23° Northeast 509 586 38,000  Level FlightAware ADS-B
Fri 03:38:52 AM 42.3800 -5.1550 23° Northeast 509 586 38,000  Level FlightAware ADS-B
Fri 03:39:32 AM 42.4630 -5.1070 23° Northeast 508 585 38,000  Level FlightAware ADS-B
Fri 03:40:17 AM 42.5620 -5.0490 23° Northeast 506 582 38,000  Level FlightAware ADS-B
Fri 03:40:57 AM 42.6490 -4.9990 23° Northeast 506 582 38,000  Level FlightAware ADS-B
Fri 03:41:57 AM 42.7770 -4.9240 23° Northeast 505 581 38,000  Level FlightAware ADS-B
Fri 03:42:37 AM 42.8670 -4.8710 23° Northeast 505 581 38,000  Level FlightAware ADS-B
Fri 03:43:17 AM 42.9470 -4.8240 23° Northeast 506 582 38,000  Level FlightAware ADS-B
Fri 03:44:02 AM 43.0480 -4.7640 23° Northeast 506 582 38,000  Level FlightAware ADS-B
Fri 03:44:42 AM 43.1340 -4.7130 23° Northeast 507 583 38,000  Level FlightAware ADS-B
Fri 03:45:22 AM 43.2220 -4.6610 23° Northeast 508 585 38,000  Level FlightAware ADS-B
Fri 03:45:57 AM 43.2920 -4.6190 24° Northeast 507 583 38,000  Level FlightAware ADS-B
Fri 03:46:42 AM 43.3840 -4.5640 23° Northeast 504 580 38,000  Level FlightAware ADS-B
Fri 03:47:32 AM 43.4990 -4.4950 24° Northeast 501 577 38,000  Level FlightAware ADS-B
Fri 03:48:12 AM 43.5800 -4.4460 24° Northeast 501 577 38,000  Level FlightAware ADS-B
Fri 03:48:52 AM 43.6640 -4.3950 24° Northeast 501 577 38,000  Level FlightAware ADS-B
Fri 03:49:37 AM 43.7610 -4.3370 23° Northeast 501 577 38,000  Level FlightAware ADS-B
Fri 03:50:17 AM 43.8330 -4.2920 24° Northeast 501 577 38,000  Level FlightAware ADS-B
Fri 03:50:57 AM 43.9050 -4.2480 24° Northeast 501 577 38,000  Level FlightAware ADS-B
Fri 03:51:37 AM 43.9770 -4.2030 24° Northeast 501 577 38,000  Level FlightAware ADS-B
Fri 03:52:17 AM 44.0490 -4.1590 24° Northeast 501 577 38,000  Level FlightAware ADS-B
Fri 03:53:07 AM 44.2050 -4.0640 24° Northeast 496 571 38,000  Level FlightAware ADS-B
Fri 03:53:47 AM 44.2920 -4.0110 24° Northeast 496 571 38,000  Level FlightAware ADS-B
Fri 03:54:32 AM 44.3650 -3.9650 24° Northeast 496 571 38,000  Level FlightAware ADS-B
Fri 03:55:07 AM 44.3470 -3.9760 204° Southwest 496 571 38,000  Level FlightAware ADS-B
Fri 03:56:22 AM 44.6040 -3.8040 25° Northeast 496 571 38,000  Level FlightAware ADS-B
Fri 03:57:17 AM 44.7140 -3.7300 26° Northeast 494 568 38,000  Level FlightAware ADS-B
Fri 03:59:00 AM 44.8823 -3.5104 43° Northeast  Level Estimated
Fri 03:59:52 AM 45.0250 -3.5180 43° Northeast 486 559 38,000  Level FlightAware ADS-B
Fri 04:01:37 AM 45.2470 -3.3670 26° Northeast 493 567 38,000  Level FlightAware ADS-B
Fri 04:02:27 AM 45.3340 -3.3090 25° Northeast 493 567 38,000  Level FlightAware ADS-B
Fri 04:03:07 AM 45.4050 -3.2620 25° Northeast 493 567 38,000  Level FlightAware ADS-B
Fri 04:04:17 AM 45.5710 -3.1410 27° Northeast 492 566 38,000  Level FlightAware ADS-B
Fri 04:04:57 AM 45.6620 -3.0780 26° Northeast 492 566 38,000  Level FlightAware ADS-B
Fri 04:05:42 AM 45.7540 -3.0130 26° Northeast 491 565 38,000  Level FlightAware ADS-B
Fri 04:06:22 AM 45.8300 -2.9590 26° Northeast 490 564 38,000  Level FlightAware ADS-B
Fri 04:08:00 AM 45.9772 -2.7275 48° Northeast  Level Estimated
Fri 04:08:42 AM 46.1170 -2.7360 48° Northeast 484 557 38,000  Level FlightAware ADS-B
Fri 04:09:27 AM 46.2170 -2.7060 12° North 474 545 38,000  Level FlightAware ADS-B
Fri 04:10:07 AM 46.3020 -2.6850 10° North 474 545 38,000  Level FlightAware ADS-B
Fri 04:10:42 AM 46.3710 -2.6680 10° North 474 545 38,000  Level FlightAware ADS-B
Fri 04:11:32 AM 46.4850 -2.6400 10° North 475 547 38,000  Level FlightAware ADS-B
Fri 04:12:12 AM 46.5690 -2.6190 10° North 476 548 38,000  Level FlightAware ADS-B
Fri 04:12:57 AM 46.6670 -2.5800 15° North 489 563 38,000  Level FlightAware ADS-B
Fri 04:13:37 AM 46.7400 -2.4960 38° Northeast 502 578 38,000  Level FlightAware ADS-B
Fri 04:14:12 AM 46.7860 -2.4030 54° Northeast 503 579 38,000  Level FlightAware ADS-B
Fri 04:15:02 AM 46.8540 -2.2640 54° Northeast 501 577 38,000  Level FlightAware ADS-B
Fri 04:15:42 AM 46.9060 -2.1560 55° Northeast 499 574 38,000  Level FlightAware ADS-B
Fri 04:16:22 AM 46.9600 -2.0430 55° Northeast 499 574 38,000 -424 Level FlightAware ADS-B
Fri 04:17:07 AM 47.0230 -1.9170 54° Northeast 498 573 37,400 -847 Descending FlightAware ADS-B
Fri 04:17:47 AM 47.0750 -1.8100 54° Northeast 493 567 36,800 -988 Descending FlightAware ADS-B
Fri 04:18:32 AM 47.1340 -1.6910 54° Northeast 493 567 36,000 -565 Descending FlightAware ADS-B
Fri 04:19:12 AM 47.1860 -1.5840 54° Northeast 490 564 36,000  Level FlightAware ADS-B
Fri 04:19:57 AM 47.2470 -1.4580 54° Northeast 491 565 36,000 -353 Level FlightAware ADS-B
Fri 04:20:37 AM 47.3000 -1.3470 55° Northeast 493 567 35,500 -825 Descending FlightAware ADS-B
Fri 04:21:17 AM 47.3530 -1.2380 54° Northeast 490 564 34,900 -918 Descending FlightAware ADS-B
Fri 04:22:02 AM 47.4100 -1.1190 55° Northeast 485 558 34,200 -1,412 Descending FlightAware ADS-B
Fri 04:22:42 AM 47.4610 -1.0120 55° Northeast 483 556 32,900 -1,725 Descending FlightAware ADS-B
Fri 04:23:22 AM 47.5040 -0.9030 60° Northeast 472 543 31,900 -1,835 Descending FlightAware ADS-B
Fri 04:24:07 AM 47.5410 -0.7640 68° East 462 532 30,300 -1,341 Descending FlightAware ADS-B
Fri 04:24:47 AM 47.5720 -0.6480 68° East 459 528 30,000 -212 Descending FlightAware ADS-B
Fri 04:25:32 AM 47.6050 -0.5170 69° East 463 533 30,000  Level FlightAware ADS-B
Fri 04:26:12 AM 47.6360 -0.4000 68° East 464 534 30,000 -212 Level FlightAware ADS-B
Fri 04:26:57 AM 47.6710 -0.2620 69° East 460 529 29,700 -1,129 Descending FlightAware ADS-B
Fri 04:27:37 AM 47.7000 -0.1460 70° East 451 519 28,400 -1,800 Descending FlightAware ADS-B
Fri 04:28:17 AM 47.7340 -0.0330 66° East 441 507 27,300 -1,800 Descending FlightAware ADS-B
Fri 04:28:57 AM 47.7820 0.0620 53° Northeast 433 498 26,000 -1,835 Descending FlightAware ADS-B
Fri 04:29:42 AM 47.8390 0.1580 48° Northeast 423 487 24,700 -1,765 Descending FlightAware ADS-B
Fri 04:30:22 AM 47.8880 0.2420 49° Northeast 416 479 23,500 -1,624 Descending FlightAware ADS-B
Fri 04:31:07 AM 47.9470 0.3420 49° Northeast 397 457 22,400 -1,553 Descending FlightAware ADS-B
Fri 04:31:47 AM 47.9950 0.4240 49° Northeast 390 449 21,300 -1,694 Descending FlightAware ADS-B
Fri 04:32:32 AM 48.0450 0.5110 49° Northeast 384 442 20,000 -1,821 Descending FlightAware ADS-B
Fri 04:32:43 AM 48.0618 0.5392 48° Northeast 384 442 19,600 -1,714 Descending FlightAware ADS-B
Fri 04:33:14 AM 48.0980 0.6014 49° Northeast 379 436 18,800 -1,548 Descending FlightAware ADS-B
Fri 04:33:45 AM 48.1324 0.6609 49° Northeast 374 430 18,000 -1,701 Descending FlightAware ADS-B
Fri 04:34:21 AM 48.1735 0.7320 49° Northeast 368 423 16,900 -1,583 Descending FlightAware ADS-B
Fri 04:34:57 AM 48.2130 0.8005 49° Northeast 362 417 16,100 -1,091 Descending FlightAware ADS-B
Fri 04:35:27 AM 48.2460 0.8580 49° Northeast 359 413 15,700 -1,065 Descending FlightAware ADS-B
Fri 04:35:59 AM 48.2802 0.9175 49° Northeast 354 407 15,000 -677 Descending FlightAware ADS-B
Fri 04:36:29 AM 48.3123 0.9738 49° Northeast 353 406 15,000  Level FlightAware ADS-B
Fri 04:37:02 AM 48.3470 1.0345 49° Northeast 357 411 15,000  Level FlightAware ADS-B
Fri 04:37:32 AM 48.3798 1.0919 49° Northeast 358 412 15,000  Level FlightAware ADS-B
Fri 04:38:03 AM 48.4125 1.1494 49° Northeast 359 413 15,000 -590 Level FlightAware ADS-B
Fri 04:38:33 AM 48.4453 1.2072 49° Northeast 357 411 14,400 -984 Descending FlightAware ADS-B
Fri 04:39:04 AM 48.4777 1.2647 50° Northeast 353 406 14,000 -471 Descending FlightAware ADS-B
Fri 04:39:24 AM 48.4989 1.3022 50° Northeast 355 409 14,000  Level FlightAware ADS-B
Fri 04:39:32 AM 48.5070 1.3184 53° Northeast 357 411 14,000  Level FlightAware ADS-B
Fri 04:39:45 AM 48.5184 1.3447 57° Northeast 357 411 14,000  Level FlightAware ADS-B
Fri 04:40:15 AM 48.5425 1.4114 61° Northeast 360 414 14,000  Level FlightAware ADS-B
Fri 04:40:45 AM 48.5654 1.4785 63° Northeast 360 414 14,000  Level FlightAware ADS-B
Fri 04:40:57 AM 48.5759 1.5023 56° Northeast 357 411 14,000  Level FlightAware ADS-B
Fri 04:41:08 AM 48.5875 1.5237 51° Northeast 356 410 14,000  Level FlightAware ADS-B
Fri 04:41:23 AM 48.6051 1.5516 46° Northeast 354 407 14,000  Level FlightAware ADS-B
Fri 04:41:54 AM 48.6416 1.6044 44° Northeast 353 406 14,000  Level FlightAware ADS-B
Fri 04:42:26 AM 48.6790 1.6576 43° Northeast 354 407 14,000  Level FlightAware ADS-B
Fri 04:43:04 AM 48.7235 1.7222 44° Northeast 351 404 14,000  Level FlightAware ADS-B
Fri 04:43:34 AM 48.7587 1.7737 44° Northeast 349 402 14,000  Level FlightAware ADS-B
Fri 04:44:04 AM 48.7941 1.8252 44° Northeast 349 402 14,000  Level FlightAware ADS-B
Fri 04:44:36 AM 48.8308 1.8796 44° Northeast 351 404 14,000 -1,667 Level FlightAware ADS-B
Fri 04:44:58 AM 48.8570 1.9192 44° Northeast 1 1 12,500  Descending FlightAware UK
Fri 04:45:05 AM 48.8648 1.9296 44° Northeast 354 407 14,000 5,294 Climbing FlightAware ADS-B
Fri 04:45:15 AM 48.8746 1.9475 50° Northeast 356 410 14,000  Level FlightAware ADS-B
Fri 04:45:24 AM 48.8823 1.9677 60° Northeast 357 411 14,000  Level FlightAware ADS-B
Fri 04:45:34 AM 48.8881 1.9905 69° East 358 412 14,000  Level FlightAware ADS-B
Fri 04:45:40 AM 48.8905 2.0063 77° East 357 411 14,000 -162 Level FlightAware ADS-B
Fri 04:46:11 AM 48.8955 2.0832 84° East 351 404 13,900 -492 Descending FlightAware ADS-B
Fri 04:46:41 AM 48.8992 2.1557 86° East 337 388 13,500 -900 Descending FlightAware ADS-B
Fri 04:47:11 AM 48.9028 2.2253 85° East 329 379 13,000 -455 Descending FlightAware ADS-B
Fri 04:47:47 AM 48.9076 2.3089 85° East 331 381 13,000 -537 Level FlightAware ADS-B
Fri 04:48:18 AM 48.9115 2.3784 85° East 325 374 12,400 -1,655 Descending FlightAware ADS-B
Fri 04:48:45 AM 48.9150 2.4408 85° East 320 368 11,400 -2,189 Descending FlightAware ADS-B
Fri 04:49:32 AM 48.9173 2.5446 88° East 316 364 9,700 -2,226 Descending FlightAware ADS-B
Fri 04:49:47 AM 48.9177 2.5786 89° East 317 365 9,100 -2,182 Descending FlightAware ADS-B
Fri 04:50:05 AM 48.9182 2.6183 89° East 312 359 8,500 -1,765 Descending FlightAware ADS-B
Fri 04:50:21 AM 48.9185 2.6513 89° East 305 351 8,100 -1,548 Descending FlightAware ADS-B
Fri 04:50:36 AM 48.9188 2.6841 89° East 302 348 7,700 -1,600 Descending FlightAware ADS-B
Fri 04:50:51 AM 48.9190 2.7159 89° East 301 346 7,300 -1,538 Descending FlightAware ADS-B
Fri 04:51:15 AM 48.9192 2.7655 90° East 298 343 6,700 -1,610 Descending FlightAware ADS-B
Fri 04:51:32 AM 48.9194 2.8010 89° East 296 341 6,200 -1,688 Descending FlightAware ADS-B
Fri 04:51:47 AM 48.9196 2.8325 89° East 294 338 5,800 -1,548 Descending FlightAware ADS-B
Fri 04:52:03 AM 48.9197 2.8653 90° East 292 336 5,400 -1,161 Descending FlightAware ADS-B
Fri 04:52:18 AM 48.9199 2.8960 89° East 288 331 5,200 -923 Descending FlightAware ADS-B
Fri 04:52:29 AM 48.9202 2.9170 89° East 286 329 5,000 -1,200 Descending FlightAware ADS-B
Fri 04:52:33 AM 48.9208 2.9259 84° East 284 327 4,900 -750 Descending FlightAware ADS-B
Fri 04:52:37 AM 48.9219 2.9334 77° East 280 322 4,900 -750 Level FlightAware ADS-B
Fri 04:52:41 AM 48.9234 2.9400 71° East 277 319 4,800 -545 Descending FlightAware ADS-B
Fri 04:52:48 AM 48.9271 2.9526 66° East 271 312 4,800 -545 Level FlightAware ADS-B
Fri 04:53:03 AM 48.9360 2.9781 62° Northeast 264 304 4,600 -774 Descending FlightAware ADS-B
Fri 04:53:19 AM 48.9451 3.0039 62° Northeast 258 297 4,400 -563 Descending FlightAware ADS-B
Fri 04:53:35 AM 48.9537 3.0288 62° Northeast 249 287 4,300 -581 Descending FlightAware ADS-B
Fri 04:53:50 AM 48.9617 3.0523 63° Northeast 244 281 4,100 -857 Descending FlightAware ADS-B
Fri 04:53:56 AM 48.9652 3.0608 58° Northeast 241 277 4,000 -667 Descending FlightAware ADS-B
Fri 04:53:59 AM 48.9674 3.0648 50° Northeast 240 276 4,000 -750 Level FlightAware ADS-B
Fri 04:54:04 AM 48.9715 3.0703 42° Northeast 236 272 3,900 -600 Descending FlightAware ADS-B
Fri 04:54:09 AM 48.9760 3.0746 32° Northeast 236 272 3,900  Level FlightAware ADS-B
Fri 04:54:16 AM 48.9825 3.0781 20° North 235 270 3,900  Level FlightAware ADS-B
Fri 04:54:19 AM 48.9860 3.0791 10° North 233 268 3,900  Level FlightAware ADS-B
Fri 04:54:23 AM 48.9899 3.0793 North 230 265 3,900  Level FlightAware ADS-B
Fri 04:54:28 AM 48.9959 3.0781 352° North 228 262 3,900  Level FlightAware ADS-B
Fri 04:54:32 AM 48.9998 3.0762 342° North 225 259 3,900  Level FlightAware ADS-B
Fri 04:54:36 AM 49.0029 3.0739 335° Northwest 225 259 3,900  Level FlightAware ADS-B
Fri 04:54:42 AM 49.0083 3.0678 323° Northwest 221 254 3,900  Level FlightAware ADS-B
Fri 04:54:45 AM 49.0103 3.0644 312° West 218 251 3,900  Level FlightAware ADS-B
Fri 04:54:49 AM 49.0126 3.0596 306° West 217 250 3,900  Level FlightAware ADS-B
Fri 04:54:54 AM 49.0146 3.0535 297° West 215 247 3,900  Level FlightAware ADS-B
Fri 04:54:58 AM 49.0157 3.0482 288° West 214 246 3,900  Level FlightAware ADS-B
Fri 04:55:05 AM 49.0166 3.0369 277° West 214 246 3,900  Level FlightAware ADS-B
Fri 04:55:11 AM 49.0165 3.0278 269° West 214 246 3,900  Level FlightAware ADS-B
Fri 04:55:27 AM 49.0153 3.0040 266° West 214 246 3,900  Level FlightAware ADS-B
Fri 04:55:43 AM 49.0142 2.9808 266° West 212 244 3,900  Level FlightAware ADS-B
Fri 04:55:58 AM 49.0132 2.9580 266° West 213 245 3,900  Level FlightAware ADS-B
Fri 04:56:15 AM 49.0119 2.9328 266° West 214 246 3,900  Level FlightAware ADS-B
Fri 04:56:31 AM 49.0107 2.9091 266° West 213 245 3,900  Level FlightAware ADS-B
Fri 04:56:47 AM 49.0096 2.8853 266° West 206 237 3,900 -429 Level FlightAware ADS-B
Fri 04:56:59 AM 49.0087 2.8679 266° West 201 231 3,700 -1,000 Descending FlightAware ADS-B
Fri 04:57:11 AM 49.0079 2.8520 266° West 188 216 3,500 -889 Descending FlightAware ADS-B
Fri 04:57:26 AM 49.0069 2.8327 265° West 175 201 3,300 -1,000 Descending FlightAware ADS-B
Fri 04:57:41 AM 49.0059 2.8145 265° West 172 198 3,000 -960 Descending FlightAware ADS-B
Fri 04:57:51 AM 49.0053 2.8022 266° West 171 197 2,900 -889 Descending FlightAware ADS-B
Fri 04:58:08 AM 49.0043 2.7828 266° West 171 197 2,600 -1,154 Descending FlightAware ADS-B
Fri 04:58:17 AM 49.0037 2.7715 265° West 169 194 2,400 -750 Descending FlightAware ADS-B
Fri 04:58:32 AM 49.0029 2.7538 266° West 163 188 2,300 -774 Descending FlightAware ADS-B
Fri 04:58:48 AM 49.0019 2.7371 265° West 150 173 2,000 -938 Descending FlightAware ADS-B
Fri 04:59:04 AM 49.0011 2.7210 266° West 141 162 1,800 -750 Descending FlightAware ADS-B
Fri 04:59:20 AM 49.0003 2.7053 266° West 134 154 1,600 -789 Descending FlightAware ADS-B
Fri 04:59:42 AM 48.9992 2.6849 265° West 128 147 1,300 -649 Descending FlightAware ADS-B
Fri 04:59:57 AM 48.9985 2.6712 266° West 129 148 1,200 -571 Descending FlightAware ADS-B
Fri 05:00:03 AM 48.9982 2.6656 265° West 129 148 1,100 -1,000 Descending FlightAware ADS-B
Fri 05:00:15 AM 48.9975 2.6547 264° West 124 143 900 -857 Descending FlightAware ADS-B
Fri 05:00:24 AM 48.9971 2.6474 265° West 125 144 800 -600 Descending FlightAware ADS-B
Fri 05:00:35 AM 48.9967 2.6374 267° West 126 145 700 -571 Descending FlightAware ADS-B
Fri 05:00:45 AM 48.9963 2.6287 266° West 128 147 600 -632 Descending FlightAware ADS-B
Fri 05:00:54 AM 48.9958 2.6210 264° West 130 150 500 -857 Descending FlightAware ADS-B
Fri 05:00:59 AM 48.9955 2.6161 265° West 128 147 400 -706 Descending FlightAware ADS-B
Fri 05:01:11 AM 48.9950 2.6053 266° West 128 147 300 -500 Descending FlightAware ADS-B
Fri 05:09:00 AM 47.6061 -1.6985 62° Northeast  Level Estimated
Fri 05:10:00 AM 47.6679 -1.5259 62° Northeast  Level Estimated
Fri 05:11:00 AM 47.7294 -1.3528 62° Northeast  Level Estimated
Fri 05:12:00 AM 47.7907 -1.1793 62° Northeast  Level Estimated
Fri 05:13:00 AM 47.8517 -1.0054 62° Northeast  Level Estimated
Fri 05:14:00 AM 47.9125 -0.8311 62° Northeast  Level Estimated
Fri 05:15:00 AM 47.9729 -0.6564 63° Northeast  Level Estimated
Fri 05:16:00 AM 48.0332 -0.4813 63° Northeast  Level Estimated
Fri 05:17:00 AM 48.0931 -0.3058 63° Northeast  Level Estimated
Fri 05:18:00 AM 48.1528 -0.1299 63° Northeast  Level Estimated

Login

Don't have an account? Register now (free) for customized features, flight alerts, and more!